Time;durP1;ratioP1;P1;durP2;ratioP2;P2;SDS_P1;SDS_P2;PMS_P1;PMS_P2;Temp;Humidity;BMP_temperature;BMP_pressure;BME280_temperature;BME280_humidity;BME280_pressure;Samples;Min_cycle;Max_cycle;Signal;HPM_P1;HPM_P2
2024/04/08 00:01:03;;;;;;;1.20;0.83;;;21.80;92.90;;;;;;5400865;26;20524;-36
2024/04/08 00:03:32;;;;;;;1.30;0.90;;;21.50;92.60;;;;;;5403126;26;20515;-36
2024/04/08 00:06:00;;;;;;;1.87;1.30;;;21.70;92.90;;;;;;5405605;26;20456;-36
2024/04/08 00:08:40;;;;;;;4.10;1.20;;;21.50;92.80;;;;;;5388733;26;20482;-35
2024/04/08 00:11:09;;;;;;;1.00;0.80;;;21.70;92.90;;;;;;5412963;26;20591;-34
2024/04/08 00:13:42;;;;;;;1.50;0.97;;;21.60;92.80;;;;;;5405835;26;20525;-34
2024/04/08 00:16:09;;;;;;;1.37;1.00;;;22.20;93.30;;;;;;5401766;26;20585;-37
2024/04/08 00:18:37;;;;;;;1.30;0.93;;;21.60;92.80;;;;;;5392039;26;20466;-38
2024/04/08 00:21:10;;;;;;;1.67;1.20;;;21.50;93.10;;;;;;5402602;26;20464;-36
2024/04/08 00:23:42;;;;;;;1.40;0.90;;;21.60;93.20;;;;;;5401027;26;20526;-36
2024/04/08 00:26:08;;;;;;;1.13;0.80;;;21.60;93.40;;;;;;5397590;26;20518;-34
2024/04/08 00:28:39;;;;;;;1.80;1.10;;;22.10;93.70;;;;;;5389911;26;21259;-36
2024/04/08 00:31:09;;;;;;;1.80;1.03;;;21.50;93.40;;;;;;5392691;26;20531;-36
2024/04/08 00:33:52;;;;;;;1.10;0.90;;;21.40;93.40;;;;;;5400829;26;22276;-35
2024/04/08 00:36:20;;;;;;;1.40;1.07;;;21.30;93.50;;;;;;5395867;26;20474;-35
2024/04/08 00:38:55;;;;;;;2.60;1.30;;;21.60;93.80;;;;;;5399118;26;21143;-37
2024/04/08 00:41:23;;;;;;;1.27;0.97;;;21.40;93.80;;;;;;5396118;26;21142;-34
2024/04/08 00:43:54;;;;;;;1.00;0.80;;;21.40;93.60;;;;;;5398339;26;20521;-35
2024/04/08 00:46:24;;;;;;;1.50;1.10;;;21.40;93.70;;;;;;5392547;26;20556;-37
2024/04/08 00:48:55;;;;;;;1.08;0.75;;;21.40;93.90;;;;;;5400671;26;20531;-34
2024/04/08 00:51:22;;;;;;;1.60;0.97;;;21.80;94.20;;;;;;5398432;26;20267;-36
2024/04/08 00:53:55;;;;;;;1.00;0.70;;;21.30;94.00;;;;;;5399559;26;20529;-35
2024/04/08 00:56:21;;;;;;;1.63;1.10;;;21.40;94.10;;;;;;5399333;26;21167;-36
2024/04/08 00:58:51;;;;;;;1.23;1.08;;;22.00;94.60;;;;;;5403713;26;20500;-34
2024/04/08 01:01:24;;;;;;;1.00;0.75;;;21.50;94.40;;;;;;5401515;26;20279;-36
2024/04/08 01:03:56;;;;;;;1.03;0.80;;;21.20;94.10;;;;;;5389807;26;20239;-36
2024/04/08 01:06:25;;;;;;;1.30;0.90;;;22.00;94.70;;;;;;5395512;26;21098;-35
2024/04/08 01:09:02;;;;;;;1.80;0.95;;;21.20;94.20;;;;;;5401356;26;20586;-36
2024/04/08 01:11:32;;;;;;;1.40;0.90;;;21.30;94.40;;;;;;5395292;26;20237;-37
2024/04/08 01:14:04;;;;;;;2.00;1.30;;;21.70;94.70;;;;;;5402573;26;20233;-35
2024/04/08 01:16:29;;;;;;;1.38;1.05;;;21.20;94.40;;;;;;5393010;26;20886;-35
2024/04/08 01:18:58;;;;;;;2.23;0.97;;;21.30;94.80;;;;;;5398038;26;20339;-36
2024/04/08 01:21:26;;;;;;;1.10;0.90;;;21.10;94.50;;;;;;5377681;26;20238;-37
2024/04/08 01:24:10;;;;;;;2.58;1.20;;;21.30;94.70;;;;;;5397229;26;20604;-35
2024/04/08 01:26:37;;;;;;;1.48;1.10;;;21.20;94.60;;;;;;5398532;26;21354;-36
2024/04/08 01:29:12;;;;;;;1.50;1.10;;;21.10;94.90;;;;;;5407197;26;20237;-33
2024/04/08 01:31:43;;;;;;;1.40;0.82;;;21.30;94.80;;;;;;5397958;26;20550;-33
2024/04/08 01:34:15;;;;;;;1.10;1.00;;;21.80;95.10;;;;;;5391917;26;20254;-33
2024/04/08 01:36:40;;;;;;;1.65;1.27;;;21.30;94.70;;;;;;5396209;26;20333;-33
2024/04/08 01:39:14;;;;;;;1.20;0.80;;;21.10;95.00;;;;;;5403259;26;20647;-36
2024/04/08 01:41:40;;;;;;;1.35;1.05;;;21.20;95.10;;;;;;5404517;26;20249;-34
2024/04/08 01:44:08;;;;;;;1.30;0.90;;;21.20;95.20;;;;;;5405176;26;20858;-36
2024/04/08 01:46:34;;;;;;;1.70;1.10;;;21.00;95.20;;;;;;5400580;26;21070;-36
2024/04/08 01:49:09;;;;;;;1.90;0.97;;;21.70;95.60;;;;;;5401645;26;20297;-36
2024/04/08 01:51:35;;;;;;;2.78;1.10;;;21.00;95.20;;;;;;5397619;26;20944;-35
2024/04/08 01:54:03;;;;;;;1.10;1.00;;;21.10;95.40;;;;;;5400773;26;20576;-37
2024/04/08 01:56:31;;;;;;;1.20;0.90;;;21.90;95.70;;;;;;5394023;26;21037;-35
2024/04/08 01:59:01;;;;;;;1.58;1.05;;;21.20;95.50;;;;;;5395395;26;20304;-34
2024/04/08 02:01:33;;;;;;;1.10;0.90;;;21.20;95.40;;;;;;5393374;26;20275;-36
2024/04/08 02:04:01;;;;;;;1.00;0.80;;;21.20;95.50;;;;;;5400143;26;20885;-34
2024/04/08 02:06:29;;;;;;;1.15;0.88;;;21.70;95.70;;;;;;5387893;26;20287;-36
2024/04/08 02:09:01;;;;;;;1.40;0.90;;;21.10;95.50;;;;;;5390234;26;20235;-36
2024/04/08 02:11:29;;;;;;;1.20;0.90;;;21.00;95.50;;;;;;5396292;26;20260;-34
2024/04/08 02:14:00;;;;;;;1.10;0.90;;;21.50;95.80;;;;;;5398983;26;20315;-35
2024/04/08 02:16:26;;;;;;;1.20;0.80;;;21.00;95.60;;;;;;5401185;26;20365;-35
2024/04/08 02:18:58;;;;;;;1.00;0.80;;;21.10;96.00;;;;;;5386732;26;20780;-37
2024/04/08 02:21:26;;;;;;;7.32;0.90;;;20.90;95.80;;;;;;5379710;26;20232;-33
2024/04/08 02:23:54;;;;;;;1.35;0.80;;;21.00;96.20;;;;;;5392315;26;22009;-36
2024/04/08 02:26:24;;;;;;;1.52;0.90;;;20.80;95.80;;;;;;5393649;26;20322;-36
2024/04/08 02:28:56;;;;;;;1.57;1.00;;;21.10;95.80;;;;;;5397255;26;20272;-35
2024/04/08 02:31:30;;;;;;;1.20;0.90;;;20.80;95.80;;;;;;5401251;26;20524;-35
2024/04/08 02:33:59;;;;;;;1.15;0.80;;;20.80;95.80;;;;;;5401717;26;20262;-37
2024/04/08 02:36:25;;;;;;;1.45;0.90;;;21.20;96.10;;;;;;5397339;26;20256;-36
2024/04/08 02:38:53;;;;;;;1.13;0.80;;;21.20;96.30;;;;;;5398916;26;20692;-37
2024/04/08 02:41:21;;;;;;;1.40;0.85;;;20.80;96.20;;;;;;5389644;26;20328;-36
2024/04/08 02:43:50;;;;;;;1.55;0.88;;;21.10;96.40;;;;;;5391296;26;20407;-38
2024/04/08 02:46:15;;;;;;;1.55;0.82;;;21.00;96.40;;;;;;5395756;26;21009;-38
2024/04/08 02:48:51;;;;;;;1.00;0.80;;;21.20;96.60;;;;;;5397180;26;22431;-36
2024/04/08 02:51:20;;;;;;;1.03;0.80;;;21.30;96.40;;;;;;5399385;26;20338;-37
2024/04/08 02:53:48;;;;;;;1.20;0.90;;;21.00;96.30;;;;;;5397378;26;21069;-35
2024/04/08 02:56:19;;;;;;;1.77;1.15;;;21.10;96.50;;;;;;5396731;26;20583;-37
2024/04/08 02:58:48;;;;;;;1.50;1.10;;;21.40;96.60;;;;;;5395173;26;20237;-38
2024/04/08 03:01:14;;;;;;;1.23;1.00;;;21.10;96.50;;;;;;5389976;26;20744;-38
2024/04/08 03:03:45;;;;;;;0.90;0.70;;;21.50;96.80;;;;;;5404147;26;20871;-36
2024/04/08 03:06:12;;;;;;;3.08;0.90;;;21.40;96.60;;;;;;5397450;26;21115;-37
2024/04/08 03:08:44;;;;;;;1.20;0.93;;;21.00;96.50;;;;;;5398709;26;20339;-36
2024/04/08 03:11:12;;;;;;;1.38;0.90;;;21.00;96.50;;;;;;5401774;26;20252;-36
2024/04/08 03:13:41;;;;;;;1.20;0.90;;;21.50;96.90;;;;;;5401638;26;20248;-36
2024/04/08 03:16:10;;;;;;;1.20;0.80;;;20.90;96.70;;;;;;5403299;26;20463;-36
2024/04/08 03:18:38;;;;;;;0.93;0.75;;;21.10;96.80;;;;;;5399109;26;20243;-35
2024/04/08 03:21:08;;;;;;;0.90;0.70;;;21.00;96.70;;;;;;5404200;26;20859;-36
2024/04/08 03:23:36;;;;;;;1.50;1.10;;;21.50;97.20;;;;;;5403620;26;20877;-36
2024/04/08 03:26:05;;;;;;;2.22;1.25;;;21.60;97.20;;;;;;5404374;26;20592;-35
2024/04/08 03:28:33;;;;;;;1.10;0.80;;;20.90;96.70;;;;;;5379401;26;20235;-36
2024/04/08 03:31:03;;;;;;;1.45;0.85;;;20.90;96.90;;;;;;5402551;26;20531;-35
2024/04/08 03:33:31;;;;;;;1.00;0.80;;;21.00;96.80;;;;;;5400830;26;20245;-35
2024/04/08 03:35:58;;;;;;;1.40;1.17;;;20.70;96.90;;;;;;5400079;26;20581;-36
2024/04/08 03:38:36;;;;;;;1.50;0.98;;;20.80;97.00;;;;;;5404617;26;20231;-36
2024/04/08 03:41:06;;;;;;;1.00;0.80;;;20.80;97.00;;;;;;5404046;26;20222;-34
2024/04/08 03:43:37;;;;;;;2.30;1.00;;;21.00;97.10;;;;;;5408467;26;20219;-34
2024/04/08 03:46:07;;;;;;;1.20;0.90;;;20.90;97.20;;;;;;5408468;26;20237;-37
2024/04/08 03:48:35;;;;;;;1.00;0.80;;;20.90;97.20;;;;;;5400814;26;20457;-37
2024/04/08 03:51:08;;;;;;;1.90;1.20;;;20.70;97.00;;;;;;5402466;26;20239;-35
2024/04/08 03:53:43;;;;;;;1.00;0.80;;;20.80;97.00;;;;;;5410327;26;20244;-34
2024/04/08 03:56:12;;;;;;;1.30;0.90;;;20.80;97.10;;;;;;5393916;26;20247;-37
2024/04/08 03:58:41;;;;;;;1.67;0.93;;;21.30;97.50;;;;;;5399435;26;20567;-36
2024/04/08 04:01:08;;;;;;;1.10;0.90;;;20.60;97.20;;;;;;5398045;26;20465;-37
2024/04/08 04:03:38;;;;;;;1.88;0.98;;;20.80;97.30;;;;;;5398068;26;20235;-37
2024/04/08 04:06:06;;;;;;;1.25;0.90;;;20.70;97.30;;;;;;5398464;26;20231;-35
2024/04/08 04:08:42;;;;;;;1.98;1.00;;;20.90;97.40;;;;;;5395104;26;20350;-35
2024/04/08 04:11:13;;;;;;;1.00;0.90;;;20.80;97.20;;;;;;5395562;26;20231;-37
2024/04/08 04:13:43;;;;;;;1.00;0.80;;;20.90;97.20;;;;;;5399275;26;21070;-36
2024/04/08 04:16:11;;;;;;;1.67;0.98;;;20.70;97.40;;;;;;5391634;26;20629;-35
2024/04/08 04:18:40;;;;;;;1.10;0.88;;;20.60;97.20;;;;;;5392378;26;20262;-37
2024/04/08 04:21:09;;;;;;;1.70;0.90;;;20.70;97.50;;;;;;5380071;26;21303;-37
2024/04/08 04:23:44;;;;;;;1.52;0.95;;;20.60;97.40;;;;;;5377323;26;20861;-37
2024/04/08 04:26:12;;;;;;;1.00;0.77;;;20.70;97.50;;;;;;5388572;26;20587;-40
2024/04/08 04:28:46;;;;;;;1.10;0.90;;;20.40;97.40;;;;;;5393895;26;20241;-36
2024/04/08 04:31:20;;;;;;;1.17;0.90;;;20.80;97.70;;;;;;5399048;26;20268;-34
2024/04/08 04:33:56;;;;;;;1.60;0.90;;;20.70;97.60;;;;;;5394539;26;20309;-36
2024/04/08 04:36:26;;;;;;;1.20;0.80;;;20.70;97.60;;;;;;5390807;26;20590;-36
2024/04/08 04:38:57;;;;;;;1.15;0.80;;;20.80;97.80;;;;;;5390438;26;20275;-37
2024/04/08 04:41:23;;;;;;;1.00;0.90;;;20.80;98.00;;;;;;5396939;26;20335;-35
2024/04/08 04:43:54;;;;;;;1.00;0.70;;;20.90;98.00;;;;;;5389101;26;20767;-35
2024/04/08 04:46:20;;;;;;;1.40;0.98;;;20.70;97.80;;;;;;5395879;26;20522;-37
2024/04/08 04:48:50;;;;;;;1.17;0.80;;;21.20;98.30;;;;;;5394286;26;20258;-37
2024/04/08 04:51:19;;;;;;;1.00;0.70;;;20.60;98.00;;;;;;5394285;26;20471;-37
2024/04/08 04:53:49;;;;;;;1.10;0.80;;;20.60;97.90;;;;;;5394571;26;20309;-35
2024/04/08 04:56:20;;;;;;;1.10;0.85;;;20.60;98.20;;;;;;5396282;26;20348;-34
2024/04/08 04:58:53;;;;;;;1.17;0.90;;;20.80;98.10;;;;;;5394865;26;20256;-36
2024/04/08 05:01:19;;;;;;;1.20;0.93;;;20.70;98.10;;;;;;5394350;26;20228;-36
2024/04/08 05:03:47;;;;;;;1.33;1.00;;;20.60;98.20;;;;;;5383440;26;20319;-37
2024/04/08 05:06:15;;;;;;;1.15;0.95;;;21.20;98.50;;;;;;5389987;26;20232;-36
2024/04/08 05:08:49;;;;;;;1.10;0.80;;;20.70;98.30;;;;;;5384838;26;20819;-36
2024/04/08 05:11:21;;;;;;;1.25;0.88;;;20.70;98.40;;;;;;5393381;26;21031;-37
2024/04/08 05:13:51;;;;;;;1.10;0.75;;;20.70;98.50;;;;;;5396785;26;20237;-34
2024/04/08 05:16:23;;;;;;;1.27;0.90;;;20.50;98.20;;;;;;5391269;26;20809;-37
2024/04/08 05:18:54;;;;;;;1.80;1.10;;;20.60;98.50;;;;;;5392715;26;20266;-35
2024/04/08 05:21:23;;;;;;;1.05;0.80;;;20.60;98.30;;;;;;5398951;26;21539;-34
2024/04/08 05:23:51;;;;;;;1.20;0.90;;;20.70;98.60;;;;;;5395940;26;20774;-36
2024/04/08 05:26:19;;;;;;;1.50;0.90;;;20.60;98.60;;;;;;5393743;26;20225;-35
2024/04/08 05:28:50;;;;;;;1.10;0.80;;;21.00;98.70;;;;;;5393250;26;20236;-34
2024/04/08 05:31:15;;;;;;;1.23;0.77;;;20.50;98.40;;;;;;5398533;26;20241;-35
2024/04/08 05:33:44;;;;;;;1.30;1.07;;;20.70;98.80;;;;;;5395116;26;21118;-36
2024/04/08 05:36:09;;;;;;;1.65;0.82;;;20.50;98.50;;;;;;5410346;26;20339;-35
2024/04/08 05:38:40;;;;;;;1.10;0.70;;;20.30;98.70;;;;;;5409419;26;20238;-37
2024/04/08 05:41:06;;;;;;;1.70;0.82;;;20.60;98.70;;;;;;5408656;26;20248;-36
2024/04/08 05:43:37;;;;;;;1.13;0.87;;;21.10;99.00;;;;;;5406265;26;20334;-36
2024/04/08 05:46:03;;;;;;;1.90;0.80;;;20.70;99.30;;;;;;5405935;26;20244;-35
2024/04/08 05:48:35;;;;;;;1.48;1.00;;;20.60;98.90;;;;;;5390464;26;20342;-36
2024/04/08 05:51:03;;;;;;;1.20;0.82;;;20.50;98.60;;;;;;5402568;26;20823;-36
2024/04/08 05:53:32;;;;;;;1.02;0.80;;;20.60;98.70;;;;;;5411712;26;20918;-36
2024/04/08 05:55:59;;;;;;;2.10;0.90;;;20.60;98.70;;;;;;5405781;26;20260;-37
2024/04/08 05:58:33;;;;;;;1.10;0.80;;;20.50;98.60;;;;;;5392617;26;20229;-35
2024/04/08 06:01:06;;;;;;;1.20;0.90;;;20.90;98.90;;;;;;5403620;26;20233;-36
2024/04/08 06:03:39;;;;;;;1.10;0.80;;;20.70;98.70;;;;;;5404767;26;20874;-35
2024/04/08 06:06:19;;;;;;;1.40;0.90;;;20.70;99.10;;;;;;5401033;26;20263;-36
2024/04/08 06:09:04;;;;;;;1.20;0.90;;;20.70;99.00;;;;;;5398379;26;20268;-35
2024/04/08 06:11:30;;;;;;;1.58;0.90;;;21.10;99.40;;;;;;5396927;26;20282;-37
2024/04/08 06:14:06;;;;;;;1.53;1.30;;;20.90;99.50;;;;;;5396752;26;20239;-36
2024/04/08 06:16:41;;;;;;;1.50;1.10;;;20.50;99.20;;;;;;5404081;26;20239;-35
2024/04/08 06:19:10;;;;;;;5.32;1.13;;;20.60;99.50;;;;;;5403593;26;20533;-35
2024/04/08 06:21:39;;;;;;;1.58;1.15;;;21.10;99.90;;;;;;5402008;26;20256;-36
2024/04/08 06:24:24;;;;;;;3.13;1.17;;;20.90;99.70;;;;;;5410742;26;20286;-36
2024/04/08 06:26:50;;;;;;;2.40;1.50;;;21.50;99.90;;;;;;5393763;26;20525;-37
2024/04/08 06:29:21;;;;;;;1.60;1.30;;;21.00;99.70;;;;;;5408805;26;20616;-36
2024/04/08 06:31:49;;;;;;;2.03;1.30;;;21.30;99.80;;;;;;5402174;26;20280;-36
2024/04/08 06:34:21;;;;;;;5.80;2.00;;;21.00;99.80;;;;;;5404362;26;20572;-36
2024/04/08 06:36:46;;;;;;;5.53;1.37;;;21.30;99.60;;;;;;5400100;26;20597;-36
2024/04/08 06:39:16;;;;;;;4.00;1.63;;;21.20;99.90;;;;;;5406413;26;20466;-35
2024/04/08 06:41:41;;;;;;;7.13;1.57;;;21.30;99.70;;;;;;5403464;26;20251;-36
2024/04/08 06:44:10;;;;;;;6.73;2.03;;;21.90;99.90;;;;;;5406200;26;21051;-38
2024/04/08 06:46:35;;;;;;;5.30;1.63;;;21.70;99.20;;;;;;5402536;26;20239;-37
2024/04/08 06:49:12;;;;;;;3.83;2.00;;;22.10;99.90;;;;;;5402845;26;20618;-37
2024/04/08 06:51:39;;;;;;;2.83;1.10;;;21.80;98.70;;;;;;5399805;26;20338;-37
2024/04/08 06:54:08;;;;;;;1.60;1.20;;;21.90;98.60;;;;;;5407852;26;20466;-38
2024/04/08 06:56:38;;;;;;;3.03;1.60;;;22.80;98.80;;;;;;5396733;26;20490;-37
2024/04/08 06:59:11;;;;;;;2.33;1.60;;;22.00;98.00;;;;;;5392901;26;20499;-36
2024/04/08 07:01:41;;;;;;;2.20;1.63;;;21.90;97.80;;;;;;5393879;26;20558;-36
2024/04/08 07:04:19;;;;;;;3.00;1.67;;;22.00;97.60;;;;;;5405289;26;20481;-35
2024/04/08 07:06:45;;;;;;;5.30;1.40;;;22.70;97.90;;;;;;5404730;26;20470;-38
2024/04/08 07:09:21;;;;;;;2.40;1.20;;;22.30;97.70;;;;;;5401797;26;20519;-37
2024/04/08 07:11:49;;;;;;;2.30;1.33;;;22.10;97.50;;;;;;5404904;26;20550;-35
2024/04/08 07:14:21;;;;;;;1.90;1.30;;;22.30;97.60;;;;;;5404336;26;20856;-38
2024/04/08 07:16:47;;;;;;;2.67;1.53;;;22.20;97.30;;;;;;5403961;26;21021;-36
2024/04/08 07:19:23;;;;;;;3.23;1.53;;;22.20;97.30;;;;;;5400984;26;20465;-38
2024/04/08 07:21:49;;;;;;;4.83;1.53;;;22.20;97.20;;;;;;5402214;26;20232;-38
2024/04/08 07:24:19;;;;;;;3.17;1.90;;;23.00;97.30;;;;;;5409031;26;20519;-37
2024/04/08 07:26:45;;;;;;;3.87;1.53;;;22.60;96.70;;;;;;5406502;26;20312;-36
2024/04/08 07:29:14;;;;;;;2.70;1.40;;;22.60;96.70;;;;;;5401974;26;20522;-36
2024/04/08 07:31:40;;;;;;;4.90;1.83;;;22.50;96.50;;;;;;5395642;26;20469;-37
2024/04/08 07:34:10;;;;;;;9.63;2.20;;;22.80;96.50;;;;;;5407359;26;20461;-36
2024/04/08 07:36:40;;;;;;;12.97;2.70;;;22.60;96.30;;;;;;5404352;26;20232;-38
2024/04/08 07:39:12;;;;;;;12.47;2.30;;;22.60;96.60;;;;;;5406939;26;20986;-37
2024/04/08 07:41:37;;;;;;;15.40;2.83;;;22.90;96.40;;;;;;5401634;26;21015;-40
2024/04/08 07:44:09;;;;;;;7.27;2.23;;;22.50;96.10;;;;;;5406582;26;20582;-37
2024/04/08 07:46:42;;;;;;;11.53;2.87;;;22.50;96.20;;;;;;5406583;26;20608;-36
2024/04/08 07:49:11;;;;;;;12.17;2.20;;;23.10;96.20;;;;;;5403375;26;20519;-38
2024/04/08 07:51:41;;;;;;;17.70;4.10;;;22.80;96.30;;;;;;5398392;26;20942;-36
2024/04/08 07:54:17;;;;;;;28.80;4.13;;;22.60;96.10;;;;;;5400589;26;20530;-36
2024/04/08 07:56:43;;;;;;;21.13;2.57;;;22.80;95.90;;;;;;5400312;26;21190;-36
2024/04/08 07:59:16;;;;;;;21.70;3.00;;;22.40;95.70;;;;;;5395695;26;20449;-35
2024/04/08 08:01:42;;;;;;;14.93;2.93;;;22.90;96.00;;;;;;5397667;26;20341;-38
2024/04/08 08:04:13;;;;;;;12.37;3.37;;;22.80;96.20;;;;;;5404069;26;20474;-37
2024/04/08 08:06:43;;;;;;;14.77;3.23;;;22.80;96.20;;;;;;5400394;26;20337;-36
2024/04/08 08:09:11;;;;;;;6.03;2.40;;;22.80;96.00;;;;;;5401721;26;20505;-37
2024/04/08 08:11:40;;;;;;;10.60;3.00;;;23.10;95.80;;;;;;5401737;26;20513;-37
2024/04/08 08:14:11;;;;;;;7.20;2.80;;;22.80;95.70;;;;;;5392087;26;20516;-38
2024/04/08 08:16:43;;;;;;;10.37;2.67;;;23.00;95.70;;;;;;5397350;26;21434;-38
2024/04/08 08:19:13;;;;;;;10.00;2.73;;;23.50;95.90;;;;;;5397565;26;20575;-37
2024/04/08 08:21:48;;;;;;;6.17;2.37;;;22.90;95.40;;;;;;5403569;26;21079;-36
2024/04/08 08:24:30;;;;;;;5.67;2.00;;;23.20;95.30;;;;;;5401893;26;20580;-36
2024/04/08 08:26:58;;;;;;;8.07;2.50;;;23.50;95.20;;;;;;5391030;26;20470;-38
2024/04/08 08:29:31;;;;;;;10.27;2.10;;;22.90;95.00;;;;;;5395368;26;20513;-37
2024/04/08 08:32:04;;;;;;;19.87;2.47;;;23.10;95.00;;;;;;5400779;26;20481;-38
2024/04/08 08:34:32;;;;;;;9.50;2.40;;;23.30;95.20;;;;;;5402108;26;20803;-37
2024/04/08 08:37:01;;;;;;;3.70;1.93;;;23.30;94.90;;;;;;5396823;26;20540;-36
2024/04/08 08:39:30;;;;;;;5.63;1.70;;;23.30;95.00;;;;;;5401471;26;20517;-37
2024/04/08 08:41:59;;;;;;;3.93;2.00;;;23.20;94.80;;;;;;5403236;26;21196;-36
2024/04/08 08:44:35;;;;;;;13.50;2.90;;;23.60;95.00;;;;;;5406739;26;20529;-36
2024/04/08 08:47:02;;;;;;;6.07;2.33;;;23.30;94.70;;;;;;5403181;26;21105;-37
2024/04/08 08:49:34;;;;;;;7.03;2.60;;;23.40;94.70;;;;;;5391716;26;20879;-36
2024/04/08 08:52:06;;;;;;;8.07;2.37;;;23.40;94.50;;;;;;5393135;26;20521;-38
2024/04/08 08:54:39;;;;;;;11.73;3.03;;;23.40;94.60;;;;;;5402012;26;20787;-36
2024/04/08 08:57:06;;;;;;;4.63;2.13;;;23.40;94.40;;;;;;5400734;26;20473;-39
2024/04/08 08:59:43;;;;;;;6.07;2.67;;;23.50;94.50;;;;;;5401107;26;20599;-36
2024/04/08 09:02:13;;;;;;;6.87;1.90;;;23.90;94.70;;;;;;5401022;26;20881;-38
2024/04/08 09:04:43;;;;;;;8.43;2.17;;;23.90;94.50;;;;;;5399044;26;20452;-37
2024/04/08 09:07:14;;;;;;;4.20;2.73;;;23.80;94.50;;;;;;5397233;26;20470;-37
2024/04/08 09:09:54;;;;;;;4.50;2.47;;;23.40;94.60;;;;;;5404139;26;21056;-35
2024/04/08 09:12:27;;;;;;;5.53;2.73;;;23.50;90.80;;;;;;5403575;26;20466;-39
2024/04/08 09:14:57;;;;;;;2.93;1.93;;;23.50;90.60;;;;;;5402931;26;21116;-38
2024/04/08 09:17:27;;;;;;;4.67;1.83;;;23.50;90.80;;;;;;5403953;26;20464;-37
2024/04/08 09:20:03;;;;;;;8.67;2.43;;;23.40;90.80;;;;;;5405973;26;20482;-38
2024/04/08 09:22:35;;;;;;;6.93;2.03;;;23.50;90.90;;;;;;5407817;26;21139;-39
2024/04/08 09:25:03;;;;;;;5.57;2.00;;;23.40;90.80;;;;;;5404732;26;21721;-39
2024/04/08 09:27:29;;;;;;;6.20;1.97;;;23.70;97.20;;;;;;5408210;26;21023;-38
2024/04/08 09:29:59;;;;;;;7.87;1.97;;;24.10;92.20;;;;;;5407034;26;20524;-38
2024/04/08 09:32:25;;;;;;;6.00;2.50;;;23.70;91.70;;;;;;5413762;26;20331;-37
2024/04/08 09:34:55;;;;;;;7.23;2.40;;;23.60;91.70;;;;;;5412448;26;20579;-38
2024/04/08 09:37:26;;;;;;;7.40;2.27;;;23.50;91.70;;;;;;5407368;26;20476;-36
2024/04/08 09:39:58;;;;;;;4.50;2.03;;;23.90;91.90;;;;;;5413222;26;20632;-36
2024/04/08 09:42:32;;;;;;;7.07;3.53;;;23.70;91.60;;;;;;5412360;26;20610;-38
2024/04/08 09:45:05;;;;;;;5.60;2.10;;;23.80;91.60;;;;;;5411585;26;20522;-38
2024/04/08 09:47:35;;;;;;;7.00;3.03;;;23.70;91.50;;;;;;5408644;26;20482;-39
2024/04/08 09:50:04;;;;;;;5.93;2.27;;;23.60;91.40;;;;;;5404618;26;21273;-36
2024/04/08 09:52:32;;;;;;;3.93;1.80;;;24.20;91.80;;;;;;5409662;26;21169;-38
2024/04/08 09:55:06;;;;;;;5.93;2.03;;;24.00;91.60;;;;;;5402641;26;20593;-35
2024/04/08 09:57:40;;;;;;;9.03;2.70;;;24.20;91.60;;;;;;5412134;26;20989;-35
2024/04/08 10:00:23;;;;;;;12.50;2.33;;;23.80;91.40;;;;;;5401744;26;20481;-39
2024/04/08 10:02:55;;;;;;;7.93;2.40;;;23.70;91.20;;;;;;5404145;26;20526;-38
2024/04/08 10:05:24;;;;;;;7.63;2.90;;;23.80;91.00;;;;;;5409021;26;20758;-39
2024/04/08 10:07:50;;;;;;;8.33;2.43;;;24.30;91.10;;;;;;5403670;26;20825;-37
2024/04/08 10:10:26;;;;;;;4.30;2.00;;;23.80;90.80;;;;;;5404041;26;20891;-36
2024/04/08 10:12:56;;;;;;;5.17;2.60;;;23.80;90.80;;;;;;5409519;26;20488;-38
2024/04/08 10:15:25;;;;;;;4.93;2.40;;;23.80;90.70;;;;;;5407159;26;20950;-36
2024/04/08 10:17:55;;;;;;;7.53;3.37;;;23.80;90.70;;;;;;5402612;26;20470;-37
2024/04/08 10:20:25;;;;;;;8.10;1.83;;;24.10;91.20;;;;;;5410506;26;21483;-37
2024/04/08 10:22:51;;;;;;;7.47;2.10;;;23.90;90.70;;;;;;5401424;26;20464;-36
2024/04/08 10:26:00;;;;;;;;;;;;;;;;;;;;;
2024/04/08 10:28:35;;;;;;;14.20;2.70;;;24.10;90.40;;;;;;5404829;26;20539;-35
2024/04/08 10:31:04;;;;;;;4.67;2.10;;;23.70;90.00;;;;;;5397806;26;20463;-37
2024/04/08 10:33:33;;;;;;;13.20;3.20;;;23.80;90.10;;;;;;5407263;26;20485;-37
2024/04/08 10:36:01;;;;;;;5.40;2.30;;;23.90;90.20;;;;;;5401403;26;20541;-36
2024/04/08 10:38:30;;;;;;;7.30;2.33;;;23.80;90.00;;;;;;5408094;26;20470;-36
2024/04/08 10:44:08;;;;;;;6.53;2.43;;;23.90;89.80;;;;;;5404547;26;20475;-35
2024/04/08 10:46:35;;;;;;;3.50;2.10;;;24.00;90.10;;;;;;5404457;26;20458;-36
2024/04/08 10:49:10;;;;;;;6.00;2.10;;;23.80;89.90;;;;;;5402208;26;21013;-36
2024/04/08 10:51:36;;;;;;;7.17;2.50;;;24.00;90.10;;;;;;5404242;26;20465;-37
2024/04/08 10:54:04;;;;;;;7.13;2.70;;;24.00;90.00;;;;;;5404823;26;20462;-37
2024/04/08 10:56:35;;;;;;;3.03;2.00;;;24.00;89.70;;;;;;5406704;26;20599;-37
2024/04/08 10:59:05;;;;;;;3.07;2.30;;;24.20;89.70;;;;;;5402369;26;20462;-37
2024/04/08 11:01:37;;;;;;;6.00;2.00;;;23.90;89.40;;;;;;5401143;26;20542;-35
2024/04/08 11:04:10;;;;;;;4.27;2.60;;;23.80;89.10;;;;;;5404025;26;21015;-36
2024/04/08 11:06:36;;;;;;;5.70;2.50;;;24.00;89.30;;;;;;5406124;26;20585;-38
2024/04/08 11:09:06;;;;;;;6.03;1.73;;;23.90;89.20;;;;;;5397033;26;20469;-37
2024/04/08 11:11:38;;;;;;;5.10;2.30;;;24.00;89.40;;;;;;5407272;26;20521;-35
2024/04/08 11:14:05;;;;;;;3.27;2.03;;;23.80;89.00;;;;;;5399258;26;20563;-36
2024/04/08 11:16:36;;;;;;;4.10;2.40;;;24.00;89.30;;;;;;5389245;26;20478;-36
2024/04/08 11:19:04;;;;;;;4.97;2.00;;;24.40;89.80;;;;;;5399745;26;20810;-36
2024/04/08 11:21:34;;;;;;;5.77;2.03;;;24.00;89.20;;;;;;5403275;26;20465;-39
2024/04/08 11:24:02;;;;;;;4.23;2.30;;;24.00;89.30;;;;;;5404356;26;20475;-36
2024/04/08 11:26:36;;;;;;;5.70;2.17;;;24.00;89.20;;;;;;5397440;26;20474;-39
2024/04/08 11:29:07;;;;;;;4.87;1.97;;;23.80;89.40;;;;;;5403694;26;21091;-38
2024/04/08 11:31:39;;;;;;;3.93;2.20;;;23.90;89.30;;;;;;5404640;26;20505;-51
2024/04/08 11:34:07;;;;;;;4.70;1.90;;;24.00;89.30;;;;;;5396505;26;21805;-40
2024/04/08 11:36:39;;;;;;;1.90;1.57;;;24.00;89.40;;;;;;5392071;26;20987;-39
2024/04/08 11:39:07;;;;;;;6.30;2.20;;;24.30;89.70;;;;;;5402846;26;21065;-36
2024/04/08 11:41:37;;;;;;;5.80;2.27;;;24.00;89.60;;;;;;5400465;26;20530;-39
2024/04/08 11:44:07;;;;;;;3.13;1.73;;;24.00;89.80;;;;;;5403055;26;20474;-37
2024/04/08 11:46:43;;;;;;;2.20;1.80;;;24.00;89.60;;;;;;5393414;26;20873;-38
2024/04/08 11:49:11;;;;;;;4.93;3.67;;;24.00;89.60;;;;;;5400137;26;20573;-37
2024/04/08 11:51:42;;;;;;;9.10;2.47;;;24.40;90.00;;;;;;5406147;26;20518;-40
2024/04/08 11:54:08;;;;;;;3.50;2.10;;;24.00;89.70;;;;;;5407430;26;20554;-38
2024/04/08 11:56:41;;;;;;;4.40;2.00;;;24.20;90.00;;;;;;5406114;26;20479;-38
2024/04/08 11:59:12;;;;;;;2.87;1.87;;;24.20;90.00;;;;;;5405321;26;20255;-41
2024/04/08 12:01:43;;;;;;;8.60;1.80;;;24.20;90.00;;;;;;5410025;26;20931;-41
2024/04/08 12:04:10;;;;;;;3.33;2.07;;;24.30;89.90;;;;;;5404645;26;20476;-40
2024/04/08 12:06:46;;;;;;;3.70;2.20;;;24.20;89.90;;;;;;5404696;26;20526;-40
2024/04/08 12:09:12;;;;;;;5.33;2.20;;;24.20;89.60;;;;;;5403599;26;21777;-38
2024/04/08 12:11:44;;;;;;;4.03;1.93;;;24.10;89.50;;;;;;5407796;26;20632;-38
2024/04/08 12:14:12;;;;;;;3.77;2.03;;;24.30;88.90;;;;;;5408688;26;20875;-42
2024/04/08 12:16:43;;;;;;;3.90;2.40;;;24.30;89.60;;;;;;5402697;26;21680;-39
2024/04/08 12:19:09;;;;;;;2.63;1.80;;;24.20;89.20;;;;;;5402185;26;21065;-39
2024/04/08 12:21:37;;;;;;;3.43;1.67;;;24.30;89.50;;;;;;5403872;26;20453;-39
2024/04/08 12:24:04;;;;;;;1.93;1.60;;;24.20;89.50;;;;;;5398713;26;20278;-38
2024/04/08 12:26:32;;;;;;;4.10;2.40;;;24.30;89.90;;;;;;5399238;26;20454;-39
2024/04/08 12:28:58;;;;;;;5.20;1.83;;;24.30;89.70;;;;;;5404228;26;21110;-40
2024/04/08 12:31:30;;;;;;;2.40;1.50;;;24.50;90.00;;;;;;5405125;26;20600;-39
2024/04/08 12:33:56;;;;;;;3.60;1.83;;;24.30;89.30;;;;;;5403878;26;20239;-39
2024/04/08 12:36:28;;;;;;;3.93;2.10;;;24.40;89.90;;;;;;5410721;26;20543;-38
2024/04/08 12:38:58;;;;;;;3.17;2.37;;;24.30;89.90;;;;;;5396914;26;20241;-38
2024/04/08 12:41:26;;;;;;;2.70;1.50;;;24.50;89.80;;;;;;5401960;26;20474;-40
2024/04/08 12:43:56;;;;;;;2.00;1.77;;;24.60;90.00;;;;;;5400801;26;20889;-38
2024/04/08 12:46:24;;;;;;;3.57;1.83;;;24.50;90.00;;;;;;5393580;26;20523;-41
2024/04/08 12:48:55;;;;;;;3.20;1.90;;;24.40;89.90;;;;;;5391171;26;20812;-40
2024/04/08 12:51:25;;;;;;;2.80;1.90;;;24.30;89.90;;;;;;5394401;26;20519;-39
2024/04/08 12:53:56;;;;;;;2.83;1.53;;;24.30;90.10;;;;;;5394172;26;20540;-39
2024/04/08 12:56:25;;;;;;;2.00;1.53;;;24.50;89.90;;;;;;5397090;26;20825;-38
2024/04/08 12:58:56;;;;;;;1.70;1.60;;;24.40;90.20;;;;;;5396616;26;20957;-39
2024/04/08 13:01:24;;;;;;;4.00;1.90;;;24.40;90.20;;;;;;5397451;26;20463;-39
2024/04/08 13:03:55;;;;;;;2.93;2.37;;;24.30;90.10;;;;;;5403457;26;20581;-38
2024/04/08 13:06:21;;;;;;;1.97;1.50;;;24.80;90.20;;;;;;5410053;26;20529;-41